Mr Thomas — WDD7163 — position and weather

sailwx.info

Track history (hours):
 
Tides and Currents Weather Stations Pressure Air Temp Water Temp Dewpoint Dewpoint Depression Visibility Wind Speed Wind Dir Waves Ship Positions

Mr Thomas

Owner: CENTRAL BOAT RENTALS, BERWICK, LA. More information available from US FCC via Universal Licensing System and Coast Guard Vessel Documentation Center.

Last reported at 2017-May-23 01:58 UTC. Time now 2017-Jun-26 17:33 UTC.
Position N 29°32' W 090°50'.
Warning: this ship's position is 34 days out of date.

Length 21 m; draft 2.5 m.

Type: Tug. MMSI: 367182730.

Date/timePositionNaut miles runAvg speedWind from/ knotsBaromVisibWave heightAir tempDewpointWater temp
2017-May-23 01:58N 29°32' W 090°50'3 5.7
2017-May-23 01:30N 29°32' W 090°47'2 4.8
2017-May-23 01:00N 29°33' W 090°45'2 4.9
2017-May-23 00:30N 29°35' W 090°43'2 4.1
2017-May-23 00:00N 29°36' W 090°41'3 6.5
2017-May-22 23:31N 29°35' W 090°38'3 6.1
2017-May-22 23:00N 29°34' W 090°34'3 6.2
2017-May-22 22:30N 29°34' W 090°31'  
2017-May-20 05:04N 29°33' W 090°28'1 7.4
2017-May-20 04:56N 29°34' W 090°29'3 7.2
2017-May-20 04:30N 29°34' W 090°33'3 6.7
2017-May-20 04:00N 29°35' W 090°37'3 6.3
2017-May-20 03:30N 29°36' W 090°40'2 4.3
2017-May-20 03:00N 29°37' W 090°42'2 4.2
2017-May-20 02:30N 29°35' W 090°43'2 4.4
2017-May-20 02:00N 29°33' W 090°45'3 6.5
2017-May-20 01:30N 29°32' W 090°49'4 7.7
2017-May-20 00:55N 29°33' W 090°54'3 0.1
2017-May-19 05:15N 29°32' W 090°51'2 7.5
2017-May-19 05:00N 29°32' W 090°48'3 6.5
2017-May-19 04:30N 29°33' W 090°45'2 4.3
2017-May-19 04:00N 29°34' W 090°43'4 7.0
2017-May-19 03:30N 29°30' W 090°43'4 7.5
2017-May-19 03:00N 29°26' W 090°43'4 7.5
2017-May-19 02:30N 29°23' W 090°44'  
2017-May-15 10:13N 29°21' W 090°44'1 6.7
2017-May-15 10:00N 29°23' W 090°44'2 4.6
2017-May-15 09:30N 29°25' W 090°43'4 7.0
2017-May-15 09:00N 29°28' W 090°43'3 6.2
2017-May-15 08:30N 29°31' W 090°42'3 5.5
2017-May-15 07:59N 29°34' W 090°43'2 4.4
2017-May-15 07:30N 29°33' W 090°45'3 5.8
2017-May-15 07:00N 29°32' W 090°48'3 6.7
2017-May-15 06:30N 29°32' W 090°52'3 6.8
2017-May-15 06:00N 29°34' W 090°56'5 0.5
2017-May-14 20:04N 29°32' W 090°50'1 5.3
2017-May-14 19:52N 29°32' W 090°49'2 5.7
2017-May-14 19:30N 29°32' W 090°46'2 4.7
2017-May-14 19:00N 29°34' W 090°44'1 3.0
2017-May-14 18:30N 29°34' W 090°43'2 4.5
2017-May-14 18:00N 29°32' W 090°42'2 4.6
2017-May-14 17:31N 29°29' W 090°43'3 6.0
2017-May-14 17:00N 29°26' W 090°43'4 0.3
2017-May-14 01:28N 29°22' W 090°44'4 8.3
2017-May-14 01:00N 29°26' W 090°43'5 9.2
2017-May-14 00:30N 29°30' W 090°43'4 7.1
2017-May-13 23:59N 29°34' W 090°43'3 6.9
2017-May-13 23:30N 29°32' W 090°46'4 8.6
2017-May-13 23:00N 29°32' W 090°51'  
Track history (hours):
 
Tides and Currents Weather Stations Pressure Air Temp Water Temp Dewpoint Dewpoint Depression Visibility Wind Speed Wind Dir Waves Ship Positions

Mr Thomas

Owner: CENTRAL BOAT RENTALS, BERWICK, LA. More information available from US FCC via Universal Licensing System and Coast Guard Vessel Documentation Center.

Last reported at 2017-May-23 01:58 UTC. Time now 2017-Jun-26 17:33 UTC.
Position N 29°32' W 090°50'.
Warning: this ship's position is 34 days out of date.

Length 21 m; draft 2.5 m.

Type: Tug. MMSI: 367182730.

Date/timePositionNaut miles runAvg speedWind from/ knotsBaromVisibWave heightAir tempDewpointWater temp
2017-May-23 01:58N 29°32' W 090°50'3 5.7
2017-May-23 01:30N 29°32' W 090°47'2 4.8
2017-May-23 01:00N 29°33' W 090°45'2 4.9
2017-May-23 00:30N 29°35' W 090°43'2 4.1
2017-May-23 00:00N 29°36' W 090°41'3 6.5
2017-May-22 23:31N 29°35' W 090°38'3 6.1
2017-May-22 23:00N 29°34' W 090°34'3 6.2
2017-May-22 22:30N 29°34' W 090°31'  
2017-May-20 05:04N 29°33' W 090°28'1 7.4
2017-May-20 04:56N 29°34' W 090°29'3 7.2
2017-May-20 04:30N 29°34' W 090°33'3 6.7
2017-May-20 04:00N 29°35' W 090°37'3 6.3
2017-May-20 03:30N 29°36' W 090°40'2 4.3
2017-May-20 03:00N 29°37' W 090°42'2 4.2
2017-May-20 02:30N 29°35' W 090°43'2 4.4
2017-May-20 02:00N 29°33' W 090°45'3 6.5
2017-May-20 01:30N 29°32' W 090°49'4 7.7
2017-May-20 00:55N 29°33' W 090°54'3 0.1
2017-May-19 05:15N 29°32' W 090°51'2 7.5
2017-May-19 05:00N 29°32' W 090°48'3 6.5
2017-May-19 04:30N 29°33' W 090°45'2 4.3
2017-May-19 04:00N 29°34' W 090°43'4 7.0
2017-May-19 03:30N 29°30' W 090°43'4 7.5
2017-May-19 03:00N 29°26' W 090°43'4 7.5
2017-May-19 02:30N 29°23' W 090°44'  
2017-May-15 10:13N 29°21' W 090°44'1 6.7
2017-May-15 10:00N 29°23' W 090°44'2 4.6
2017-May-15 09:30N 29°25' W 090°43'4 7.0
2017-May-15 09:00N 29°28' W 090°43'3 6.2
2017-May-15 08:30N 29°31' W 090°42'3 5.5
2017-May-15 07:59N 29°34' W 090°43'2 4.4
2017-May-15 07:30N 29°33' W 090°45'3 5.8
2017-May-15 07:00N 29°32' W 090°48'3 6.7
2017-May-15 06:30N 29°32' W 090°52'3 6.8
2017-May-15 06:00N 29°34' W 090°56'5 0.5
2017-May-14 20:04N 29°32' W 090°50'1 5.3
2017-May-14 19:52N 29°32' W 090°49'2 5.7
2017-May-14 19:30N 29°32' W 090°46'2 4.7
2017-May-14 19:00N 29°34' W 090°44'1 3.0
2017-May-14 18:30N 29°34' W 090°43'2 4.5
2017-May-14 18:00N 29°32' W 090°42'2 4.6
2017-May-14 17:31N 29°29' W 090°43'3 6.0
2017-May-14 17:00N 29°26' W 090°43'4 0.3
2017-May-14 01:28N 29°22' W 090°44'4 8.3
2017-May-14 01:00N 29°26' W 090°43'5 9.2
2017-May-14 00:30N 29°30' W 090°43'4 7.1
2017-May-13 23:59N 29°34' W 090°43'3 6.9
2017-May-13 23:30N 29°32' W 090°46'4 8.6
2017-May-13 23:00N 29°32' W 090°51'  

Dump ship's entire track history